Time;durP1;ratioP1;P1;durP2;ratioP2;P2;SDS_P1;SDS_P2;PMS_P1;PMS_P2;Temp;Humidity;BMP_temperature;BMP_pressure;BME280_temperature;BME280_humidity;BME280_pressure;Samples;Min_cycle;Max_cycle;Signal;HPM_P1;HPM_P2
2022/05/21 00:07:51;;;;;;;8.15;4.78;;;;;;;20.81;70.17;97033.22;6212276;23;20052;-78
2022/05/21 00:18:22;;;;;;;8.95;4.68;;;;;;;20.69;71.19;97049.97;6212350;23;20013;-79
2022/05/21 00:21:05;;;;;;;9.13;4.57;;;;;;;20.68;70.23;97044.91;6209684;23;20017;-80
2022/05/21 00:34:01;;;;;;;4.30;3.72;;;;;;;20.40;68.21;97051.75;6209394;23;20028;-79
2022/05/21 01:27:33;;;;;;;4.20;3.47;;;;;;;19.77;67.31;97106.22;6238203;23;20019;-79
2022/05/21 01:40:51;;;;;;;4.07;3.25;;;;;;;19.54;65.63;97115.66;6123306;23;20077;-79
2022/05/21 02:56:25;;;;;;;3.13;2.90;;;;;;;18.64;65.95;97179.00;6246197;23;20019;-80
2022/05/21 05:01:41;;;;;;;7.80;4.47;;;;;;;17.18;62.82;97259.88;6027810;23;21456;-80
2022/05/21 05:30:04;;;;;;;4.40;4.10;;;;;;;16.83;65.46;97284.69;6008329;23;20019;-79
2022/05/21 06:42:04;;;;;;;3.42;3.10;;;;;;;16.74;61.69;97314.88;6028754;23;20475;-79
2022/05/21 06:44:32;;;;;;;3.80;3.33;;;;;;;16.75;62.36;97303.31;6017075;23;20460;-79
2022/05/21 06:47:24;;;;;;;5.10;3.20;;;;;;;16.78;62.69;97302.91;6026475;23;20059;-80
2022/05/21 06:49:55;;;;;;;3.35;3.05;;;;;;;16.79;61.19;97298.44;5966198;23;20023;-80
2022/05/21 06:58:14;;;;;;;4.28;2.90;;;;;;;16.85;61.75;97303.75;6101859;23;20485;-79
2022/05/21 07:03:51;;;;;;;3.85;2.42;;;;;;;16.86;60.54;97302.75;6125169;23;20022;-73
2022/05/21 07:09:01;;;;;;;2.38;2.00;;;;;;;16.97;61.04;97308.41;6066721;23;20100;-76
2022/05/21 07:11:28;;;;;;;15.25;2.67;;;;;;;17.03;60.92;97295.22;6125991;23;20052;-77
2022/05/21 07:13:57;;;;;;;11.18;3.17;;;;;;;17.10;59.13;97297.84;6125725;23;20109;-74
2022/05/21 07:16:24;;;;;;;2.50;2.17;;;;;;;17.14;59.43;97304.31;6124515;23;20097;-78
2022/05/21 07:18:52;;;;;;;2.35;2.15;;;;;;;17.19;59.15;97296.59;6126613;23;20022;-74
2022/05/21 07:21:20;;;;;;;37.53;23.02;;;;;;;17.23;60.05;97299.63;6125300;23;20331;-74
2022/05/21 07:23:48;;;;;;;7.90;4.18;;;;;;;17.28;59.40;97307.72;6125488;23;20028;-75
2022/05/21 07:26:16;;;;;;;10.48;2.47;;;;;;;17.33;57.91;97304.47;6124615;23;20028;-74
2022/05/21 07:28:44;;;;;;;6.65;2.10;;;;;;;17.37;58.20;97305.69;6125629;23;20022;-75
2022/05/21 07:31:13;;;;;;;2.50;2.30;;;;;;;17.44;59.46;97301.19;6126091;23;20021;-75
2022/05/21 07:33:41;;;;;;;4.72;1.77;;;;;;;17.47;57.79;97308.69;6125570;23;20026;-75
2022/05/21 07:36:09;;;;;;;2.63;1.67;;;;;;;17.50;56.81;97297.72;6124326;23;20109;-76
2022/05/21 07:38:37;;;;;;;9.05;7.28;;;;;;;17.59;59.32;97303.56;6127069;23;20022;-73
2022/05/21 07:41:06;;;;;;;14.63;11.23;;;;;;;18.21;57.58;97306.53;6133419;23;20097;-75
2022/05/21 07:43:33;;;;;;;5.20;2.30;;;;;;;18.49;54.00;97303.50;6125664;23;20033;-74
2022/05/21 07:46:01;;;;;;;2.17;1.50;;;;;;;18.49;54.45;97304.31;6125429;23;20549;-76
2022/05/21 07:48:50;;;;;;;1.67;0.82;;;;;;;18.40;52.58;97313.53;6126445;23;20029;-79
2022/05/21 07:51:20;;;;;;;2.80;0.88;;;;;;;18.34;54.31;97301.16;6124087;23;20018;-78
2022/05/21 07:53:48;;;;;;;3.15;1.20;;;;;;;18.32;54.51;97308.50;6126534;23;20025;-79
2022/05/21 07:56:17;;;;;;;1.45;1.15;;;;;;;18.34;53.72;97306.44;6126775;23;20029;-78
2022/05/21 07:58:47;;;;;;;2.28;1.10;;;;;;;18.33;52.80;97307.47;6128362;23;20018;-78
2022/05/21 08:01:14;;;;;;;2.10;1.35;;;;;;;18.34;52.74;97306.44;6107821;23;20462;-79
2022/05/21 08:03:46;;;;;;;3.55;1.00;;;;;;;18.38;52.08;97306.84;6103894;23;20018;-80
2022/05/21 08:06:21;;;;;;;3.70;0.93;;;;;;;18.41;52.03;97301.13;6100674;23;20097;-78
2022/05/21 08:08:50;;;;;;;29.95;19.48;;;;;;;18.46;52.39;97291.53;6103490;23;20355;-77
2022/05/21 08:11:18;;;;;;;4.93;3.13;;;;;;;18.56;54.24;97291.03;6123766;23;20032;-79
2022/05/21 08:13:45;;;;;;;2.97;1.30;;;;;;;18.64;52.42;97292.63;6133377;23;20105;-80
2022/05/21 08:16:13;;;;;;;3.40;1.38;;;;;;;18.67;51.37;97285.09;6133696;23;20338;-79
2022/05/21 08:18:41;;;;;;;1.05;0.93;;;;;;;18.72;51.82;97289.72;6133859;23;20018;-78
2022/05/21 08:21:09;;;;;;;0.98;0.65;;;;;;;18.74;50.16;97288.47;6132252;23;20085;-78
2022/05/21 08:29:08;;;;;;;1.65;0.60;;;;;;;18.86;48.72;97304.44;6139996;23;20405;-80
2022/05/21 08:31:36;;;;;;;2.40;0.90;;;;;;;18.87;47.89;97303.44;6138580;23;20046;-83
2022/05/21 08:34:04;;;;;;;1.85;0.55;;;;;;;18.91;48.00;97301.16;6136662;23;20097;-81
2022/05/21 08:36:32;;;;;;;0.90;0.40;;;;;;;18.92;47.35;97297.50;6136906;23;20025;-84
2022/05/21 08:39:01;;;;;;;1.25;0.57;;;;;;;18.96;47.60;97297.84;6137508;23;20354;-81
2022/05/21 08:41:31;;;;;;;0.85;0.43;;;;;;;19.01;48.23;97306.75;6136954;23;20081;-84
2022/05/21 08:44:04;;;;;;;0.68;0.60;;;;;;;19.06;48.04;97303.44;6134902;23;20081;-80
2022/05/21 08:46:38;;;;;;;20.63;14.15;;;;;;;19.12;48.18;97305.22;6134262;23;20018;-82
2022/05/21 08:49:08;;;;;;;22.90;15.25;;;;;;;19.17;47.94;97310.66;6133176;23;20045;-80
2022/05/21 08:51:41;;;;;;;1.40;1.00;;;;;;;19.21;47.02;97309.19;6134959;23;20418;-77
2022/05/21 08:54:19;;;;;;;1.25;1.05;;;;;;;19.26;50.29;97314.66;6134978;23;20026;-81
2022/05/21 08:56:49;;;;;;;1.40;0.70;;;;;;;19.30;48.11;97299.94;6129203;23;20018;-80
2022/05/21 08:59:21;;;;;;;0.68;0.55;;;;;;;19.33;48.00;97296.06;6132010;23;20024;-81
2022/05/21 09:01:48;;;;;;;1.30;0.88;;;;;;;19.37;47.64;97305.16;6131553;23;20028;-81
2022/05/21 09:04:16;;;;;;;1.52;0.40;;;;;;;19.39;47.52;97300.44;6132887;23;20029;-79
2022/05/21 09:06:51;;;;;;;1.65;0.47;;;;;;;19.45;47.55;97290.84;6131555;23;20018;-81
2022/05/21 09:09:33;;;;;;;0.82;0.40;;;;;;;19.55;49.81;97291.13;6132737;23;20097;-82
2022/05/21 09:12:10;;;;;;;3.10;2.33;;;;;;;19.63;47.88;97292.66;6132502;23;20559;-80
2022/05/21 09:14:43;;;;;;;18.92;12.23;;;;;;;19.68;47.68;97290.97;6131775;23;20028;-79
2022/05/21 09:17:10;;;;;;;;;;;;;;;19.78;48.37;97290.47;6131593;23;20412;-79
2022/05/21 09:19:44;;;;;;;1.52;1.30;;;;;;;19.84;47.08;97288.78;6130426;23;19992;-86
2022/05/21 09:22:15;;;;;;;1.83;1.15;;;;;;;19.92;49.29;97283.16;6131772;23;20044;-79
2022/05/21 09:25:17;;;;;;;1.95;0.57;;;;;;;20.07;49.39;97283.56;6132595;23;20486;-78
2022/05/21 09:27:47;;;;;;;0.85;0.38;;;;;;;20.14;48.26;97280.81;6135616;23;20403;-80
2022/05/21 09:30:23;;;;;;;0.88;0.40;;;;;;;20.20;48.68;97287.84;6132269;23;20549;-78
2022/05/21 09:32:53;;;;;;;1.02;0.50;;;;;;;20.20;46.59;97287.03;6131030;23;20100;-76
2022/05/21 09:35:23;;;;;;;0.70;0.35;;;;;;;20.21;46.22;97289.47;6133093;23;20032;-81
2022/05/21 09:37:51;;;;;;;0.30;0.30;;;;;;;20.22;47.55;97290.28;6130530;23;20022;-78
2022/05/21 09:40:35;;;;;;;2.22;0.85;;;;;;;20.25;45.86;97295.13;6130644;23;20088;-78
2022/05/21 09:45:50;;;;;;;1.08;0.50;;;;;;;20.25;45.50;97284.53;6130550;23;20029;-79
2022/05/21 09:48:20;;;;;;;1.38;0.57;;;;;;;20.26;46.18;97271.03;6132698;23;20029;-79
2022/05/21 09:50:51;;;;;;;0.65;0.50;;;;;;;20.29;46.98;97280.38;6133839;23;20481;-80
2022/05/21 09:53:26;;;;;;;0.88;0.40;;;;;;;20.27;44.89;97271.84;6137161;23;20018;-86
2022/05/21 09:56:01;;;;;;;0.30;0.30;;;;;;;20.27;45.05;97277.97;6137047;23;20101;-84
2022/05/21 09:58:33;;;;;;;0.57;0.30;;;;;;;20.27;45.67;97275.31;6133050;23;20102;-86
2022/05/21 10:01:01;;;;;;;0.85;0.30;;;;;;;20.28;45.69;97262.88;6132392;23;20018;-83
2022/05/21 10:03:45;;;;;;;16.58;10.95;;;;;;;20.29;45.93;97267.97;6135627;23;20032;-85
2022/05/21 10:06:20;;;;;;;0.98;0.88;;;;;;;20.30;46.74;97263.47;6133160;23;20022;-78
2022/05/21 10:11:47;;;;;;;1.40;0.70;;;;;;;20.37;46.51;97262.31;6136016;23;20041;-80
2022/05/21 10:14:20;;;;;;;0.75;0.50;;;;;;;20.43;46.47;97260.59;6132225;23;20056;-80
2022/05/21 10:16:53;;;;;;;1.95;0.30;;;;;;;20.48;45.42;97252.75;6132328;23;20361;-82
2022/05/21 10:19:27;;;;;;;0.75;0.70;;;;;;;20.51;45.68;97254.97;6133882;23;20022;-82
2022/05/21 10:22:06;;;;;;;1.35;0.30;;;;;;;20.52;44.71;97258.44;6134061;23;20092;-82
2022/05/21 10:24:45;;;;;;;6.40;0.65;;;;;;;20.55;45.18;97263.25;6134275;23;20101;-80
2022/05/21 10:27:39;;;;;;;0.65;0.10;;;;;;;20.57;45.17;97250.63;6129784;23;20018;-82
2022/05/21 10:30:13;;;;;;;1.45;0.30;;;;;;;20.63;45.39;97259.50;6131251;23;20420;-78
2022/05/21 10:33:03;;;;;;;1.25;0.20;;;;;;;20.65;42.79;97260.88;6131728;23;20439;-79
2022/05/21 10:35:57;;;;;;;1.27;0.20;;;;;;;20.65;42.88;97262.75;6131522;23;20024;-79
2022/05/21 10:38:42;;;;;;;3.30;0.55;;;;;;;20.70;42.65;97254.88;6120244;23;20041;-80
2022/05/21 10:41:23;;;;;;;0.52;0.20;;;;;;;20.73;41.81;97267.72;6131061;23;20018;-84
2022/05/21 10:44:03;;;;;;;0.47;0.20;;;;;;;20.74;42.26;97250.75;6129920;23;20105;-80
2022/05/21 10:46:41;;;;;;;3.20;0.20;;;;;;;20.77;42.14;97245.81;6127264;23;20102;-77
2022/05/21 10:49:32;;;;;;;0.40;0.20;;;;;;;20.78;41.86;97247.41;6130505;23;20071;-77
2022/05/21 10:52:03;;;;;;;3.30;0.22;;;;;;;20.78;43.17;97247.41;6128656;23;20022;-79
2022/05/21 10:54:50;;;;;;;17.40;11.23;;;;;;;20.78;42.58;97246.59;6129888;23;20105;-76
2022/05/21 10:57:32;;;;;;;3.45;1.70;;;;;;;20.77;41.25;97247.63;6129445;23;20049;-80
2022/05/21 11:00:08;;;;;;;1.17;0.45;;;;;;;20.79;40.94;97253.50;6131826;23;20593;-80
2022/05/21 11:03:18;;;;;;;2.17;0.30;;;;;;;20.83;41.12;97240.59;6131369;23;20097;-79
2022/05/21 11:06:01;;;;;;;2.50;0.40;;;;;;;20.85;42.55;97246.47;6131309;23;20026;-80
2022/05/21 11:08:36;;;;;;;0.88;0.22;;;;;;;20.85;43.25;97247.28;6131297;23;20014;-78
2022/05/21 11:11:09;;;;;;;0.63;0.20;;;;;;;20.85;41.71;97241.97;6130495;23;20078;-79
2022/05/21 11:13:41;;;;;;;2.58;0.75;;;;;;;20.86;42.14;97237.47;6132620;23;20032;-78
2022/05/21 11:16:16;;;;;;;1.35;0.30;;;;;;;20.88;43.46;97241.53;6131593;23;20028;-80
2022/05/21 11:18:47;;;;;;;1.10;0.20;;;;;;;20.92;41.85;97232.03;6133178;23;20105;-81
2022/05/21 11:21:20;;;;;;;0.95;0.50;;;;;;;20.91;41.75;97230.44;6130717;23;20101;-79
2022/05/21 11:23:55;;;;;;;;;;;;;;;20.92;41.98;97226.75;6131073;23;20022;-79
2022/05/21 11:26:30;;;;;;;0.90;0.20;;;;;;;20.92;41.89;97221.44;6130337;23;19928;-77
2022/05/21 11:29:03;;;;;;;0.63;0.30;;;;;;;20.94;43.16;97219.38;6131829;23;20066;-79
2022/05/21 11:37:22;;;;;;;1.75;0.22;;;;;;;21.01;41.11;97213.13;6130220;23;20022;-80
2022/05/21 11:39:51;;;;;;;1.45;0.73;;;;;;;21.02;41.31;97214.75;6131145;23;20018;-78
2022/05/21 11:42:22;;;;;;;2.35;0.95;;;;;;;21.04;39.73;97216.13;6131490;23;20048;-79
2022/05/21 11:44:59;;;;;;;0.43;0.30;;;;;;;21.04;41.06;97229.41;6131754;23;20022;-78
2022/05/21 11:48:11;;;;;;;1.67;0.30;;;;;;;21.07;40.76;97217.50;6130168;23;20069;-79
2022/05/21 11:50:40;;;;;;;2.80;0.35;;;;;;;21.08;41.24;97214.63;6131281;23;20018;-78
2022/05/21 11:53:30;;;;;;;0.60;0.30;;;;;;;21.09;39.76;97210.94;6130500;23;20093;-78
2022/05/21 11:56:02;;;;;;;1.17;0.38;;;;;;;21.11;39.89;97208.84;6130429;23;20105;-80
2022/05/21 11:59:08;;;;;;;0.20;0.20;;;;;;;21.14;41.82;97203.09;6131786;23;20026;-82
2022/05/21 12:01:58;;;;;;;1.48;0.30;;;;;;;21.20;40.76;97201.34;6109016;23;20513;-78
2022/05/21 12:05:06;;;;;;;1.70;0.45;;;;;;;21.24;42.30;97199.03;6130549;23;20402;-79
2022/05/21 12:07:56;;;;;;;0.40;0.20;;;;;;;21.25;41.05;97198.78;6107290;23;20097;-79
2022/05/21 12:10:30;;;;;;;0.30;0.30;;;;;;;21.25;41.39;97193.47;6129832;23;20097;-78
2022/05/21 12:13:12;;;;;;;0.40;0.20;;;;;;;21.26;40.23;97197.75;6129528;23;20102;-80
2022/05/21 12:15:48;;;;;;;4.13;0.30;;;;;;;21.28;40.77;97205.47;6128994;23;20026;-77
2022/05/21 12:18:44;;;;;;;1.65;0.30;;;;;;;21.32;40.91;97203.97;6129800;23;20022;-78
2022/05/21 12:21:46;;;;;;;0.82;0.30;;;;;;;21.33;40.53;97206.38;6080003;23;20093;-80
2022/05/21 12:24:34;;;;;;;1.50;0.20;;;;;;;21.37;40.46;97191.59;6130020;23;20100;-78
2022/05/21 12:27:05;;;;;;;0.60;0.20;;;;;;;21.42;40.02;97192.75;6129371;23;20028;-81
2022/05/21 12:29:43;;;;;;;0.95;0.30;;;;;;;21.46;40.14;97193.91;6130232;23;20477;-78
2022/05/21 12:32:15;;;;;;;0.43;0.43;;;;;;;21.49;40.04;97190.75;6129968;23;20025;-80
2022/05/21 12:35:23;;;;;;;0.57;0.30;;;;;;;21.52;39.59;97193.75;6129144;23;20018;-78
2022/05/21 12:37:57;;;;;;;0.47;0.30;;;;;;;21.52;41.33;97187.66;6128828;23;20018;-80
2022/05/21 12:40:45;;;;;;;0.68;0.30;;;;;;;21.53;42.22;97182.09;6132100;23;20050;-79
2022/05/21 12:43:14;;;;;;;1.45;0.30;;;;;;;21.55;41.61;97193.28;6131790;23;20025;-78
2022/05/21 12:45:45;;;;;;;1.25;0.30;;;;;;;21.57;39.87;97179.78;6131281;23;20541;-82
2022/05/21 12:48:16;;;;;;;2.92;0.43;;;;;;;21.60;43.97;97185.44;6133382;23;20052;-78
2022/05/21 12:50:51;;;;;;;3.22;0.75;;;;;;;21.63;41.22;97180.69;6132831;23;20105;-78
2022/05/21 12:53:24;;;;;;;2.55;0.30;;;;;;;21.65;40.90;97184.72;6132207;23;20057;-79
2022/05/21 12:56:00;;;;;;;;;;;;;;;21.69;41.87;97188.50;6131719;23;20464;-78
2022/05/21 12:58:28;;;;;;;1.63;0.30;;;;;;;21.68;40.37;97176.25;6130465;23;20385;-80
2022/05/21 13:00:58;;;;;;;0.82;0.30;;;;;;;21.69;41.28;97172.56;6130242;23;20108;-80
2022/05/21 13:03:32;;;;;;;0.88;0.30;;;;;;;21.69;43.05;97171.75;6131098;23;20508;-79
2022/05/21 13:06:03;;;;;;;2.13;0.60;;;;;;;21.71;42.07;97175.78;6129248;23;20117;-78
2022/05/21 13:08:32;;;;;;;1.85;0.68;;;;;;;21.70;42.64;97168.88;6129286;23;20481;-78
2022/05/21 13:11:04;;;;;;;2.10;0.30;;;;;;;21.71;40.51;97162.53;6129533;23;20028;-78
2022/05/21 13:13:35;;;;;;;0.75;0.30;;;;;;;21.74;43.72;97154.06;6129374;23;20030;-79
2022/05/21 13:16:06;;;;;;;2.65;0.35;;;;;;;21.77;41.40;97158.88;6129165;23;20490;-79
2022/05/21 13:18:43;;;;;;;1.20;0.32;;;;;;;21.80;42.22;97155.78;6129964;23;20028;-78
2022/05/21 13:21:22;;;;;;;1.45;0.30;;;;;;;21.81;41.67;97154.72;6129472;23;20569;-78
2022/05/21 13:24:08;;;;;;;1.98;0.43;;;;;;;21.83;42.64;97159.00;6129565;23;20022;-78
2022/05/21 13:26:39;;;;;;;1.95;0.50;;;;;;;21.81;42.75;97149.41;6128819;23;20026;-78
2022/05/21 13:29:26;;;;;;;2.65;0.30;;;;;;;21.79;42.52;97156.78;6129882;23;20112;-79
2022/05/21 13:31:55;;;;;;;0.82;0.30;;;;;;;21.78;42.32;97160.50;6129206;23;20028;-78
2022/05/21 13:34:26;;;;;;;0.65;0.30;;;;;;;21.79;42.09;97143.53;6130968;23;20101;-79
2022/05/21 13:36:59;;;;;;;1.10;0.38;;;;;;;21.79;41.35;97151.47;6136742;23;20046;-81
2022/05/21 13:39:32;;;;;;;2.25;0.17;;;;;;;21.83;43.08;97143.06;6137402;23;20057;-82
2022/05/21 13:42:07;;;;;;;1.30;0.28;;;;;;;21.84;42.26;97137.47;6108462;23;20106;-82
2022/05/21 13:44:37;;;;;;;0.52;0.20;;;;;;;21.85;42.05;97139.13;6108793;23;20050;-80
2022/05/21 13:47:10;;;;;;;1.15;0.40;;;;;;;21.86;42.20;97150.53;6107409;23;20336;-83
2022/05/21 13:49:40;;;;;;;1.17;0.30;;;;;;;21.85;42.70;97143.63;6106997;23;20073;-84
2022/05/21 13:52:11;;;;;;;0.60;0.30;;;;;;;21.83;40.49;97135.09;6106907;23;20026;-83
2022/05/21 13:54:47;;;;;;;1.45;0.30;;;;;;;21.83;40.58;97137.75;6108481;23;20030;-84
2022/05/21 13:57:21;;;;;;;3.00;0.73;;;;;;;21.83;41.54;97135.09;6107315;23;20094;-80
2022/05/21 13:59:52;;;;;;;6.40;0.50;;;;;;;21.84;43.09;97136.69;6105420;23;20042;-80
2022/05/21 14:02:31;;;;;;;1.80;0.50;;;;;;;21.83;41.16;97135.09;6106902;23;20029;-79
2022/05/21 14:04:59;;;;;;;1.08;0.30;;;;;;;21.83;42.62;97135.09;6105499;23;20014;-81
2022/05/21 14:07:30;;;;;;;1.15;0.40;;;;;;;21.84;42.10;97139.34;6104389;23;20029;-83
2022/05/21 14:10:02;;;;;;;1.15;0.35;;;;;;;21.86;41.80;97139.91;6104723;23;20023;-78
2022/05/21 14:12:36;;;;;;;0.95;0.30;;;;;;;21.90;43.10;97135.72;6105518;23;20057;-80
2022/05/21 14:15:12;;;;;;;1.63;0.30;;;;;;;21.92;41.53;97136.28;6105710;23;20093;-82
2022/05/21 14:17:41;;;;;;;1.67;0.20;;;;;;;21.92;40.07;97138.94;6108155;23;20022;-80
2022/05/21 14:20:24;;;;;;;1.83;0.50;;;;;;;21.91;40.04;97124.03;6109740;23;20050;-78
2022/05/21 14:22:51;;;;;;;2.42;0.40;;;;;;;21.91;40.59;97137.31;6107153;23;20074;-78
2022/05/21 14:25:33;;;;;;;1.23;0.80;;;;;;;21.92;40.06;97128.31;6106453;23;20050;-77
2022/05/21 14:28:23;;;;;;;2.67;0.43;;;;;;;21.94;40.35;97121.72;6105793;23;20060;-79
2022/05/21 14:30:53;;;;;;;1.80;0.40;;;;;;;21.96;40.99;97124.16;6105606;23;20581;-78
2022/05/21 14:33:29;;;;;;;2.13;0.57;;;;;;;21.97;40.97;97123.09;6105557;23;20070;-80
2022/05/21 14:36:24;;;;;;;0.57;0.40;;;;;;;21.98;39.18;97116.75;6104709;23;20371;-78
2022/05/21 14:38:52;;;;;;;3.25;0.30;;;;;;;21.95;40.35;97117.22;6107975;23;20057;-79
2022/05/21 14:41:29;;;;;;;2.20;0.47;;;;;;;21.94;39.86;97108.44;6107555;23;20028;-78
2022/05/21 14:43:59;;;;;;;3.72;0.90;;;;;;;21.95;41.09;97111.91;6114431;23;20074;-84
2022/05/21 14:49:12;;;;;;;8.15;4.90;;;;;;;21.95;39.30;97101.28;6115482;23;20097;-78
2022/05/21 14:54:30;;;;;;;4.75;0.90;;;;;;;21.92;39.11;97096.47;6110347;23;20073;-80
2022/05/21 14:56:57;;;;;;;0.80;0.55;;;;;;;21.91;39.57;97094.84;6109862;23;20061;-81
2022/05/21 14:59:26;;;;;;;3.25;0.50;;;;;;;21.89;39.06;97095.09;6107442;23;20101;-78
2022/05/21 15:01:54;;;;;;;1.92;0.77;;;;;;;21.89;39.30;97088.97;6106889;23;20066;-78
2022/05/21 15:04:22;;;;;;;0.20;0.20;;;;;;;21.89;38.60;97079.16;6108057;23;20070;-78
2022/05/21 15:06:50;;;;;;;2.97;0.52;;;;;;;21.90;40.69;97082.63;6109330;23;20497;-79
2022/05/21 15:09:17;;;;;;;1.77;0.38;;;;;;;21.91;40.60;97085.03;6109632;23;20037;-79
2022/05/21 15:11:47;;;;;;;1.40;0.60;;;;;;;21.93;38.57;97088.25;6108774;23;20019;-81
2022/05/21 15:14:15;;;;;;;1.60;0.40;;;;;;;21.92;39.57;97080.53;6106541;23;20403;-78
2022/05/21 15:16:44;;;;;;;1.15;0.32;;;;;;;21.89;38.16;97081.00;6105601;23;20491;-79
2022/05/21 15:19:13;;;;;;;1.13;0.32;;;;;;;21.90;39.18;97072.00;6106333;23;20022;-81
2022/05/21 15:21:44;;;;;;;0.50;0.30;;;;;;;21.89;40.27;97078.34;6106077;23;20053;-79
2022/05/21 15:24:12;;;;;;;1.45;0.40;;;;;;;21.88;39.42;97082.03;6106985;23;20022;-79
2022/05/21 15:26:39;;;;;;;0.40;0.40;;;;;;;21.88;40.27;97074.09;6104781;23;20058;-79
2022/05/21 15:29:08;;;;;;;2.83;0.68;;;;;;;21.88;39.99;97079.38;6105298;23;20091;-78
2022/05/21 15:31:35;;;;;;;1.98;0.47;;;;;;;21.86;37.70;97076.97;6107214;23;20057;-79
2022/05/21 15:34:04;;;;;;;0.82;0.30;;;;;;;21.86;38.86;97073.50;6107518;23;20026;-80
2022/05/21 15:36:32;;;;;;;1.35;0.70;;;;;;;21.87;39.27;97072.47;6107616;23;20077;-78
2022/05/21 15:38:59;;;;;;;0.63;0.20;;;;;;;21.89;38.90;97065.09;6107654;23;20046;-78
2022/05/21 15:41:28;;;;;;;0.57;0.22;;;;;;;21.86;38.83;97066.34;6107948;23;20069;-78
2022/05/21 15:43:57;;;;;;;3.28;0.75;;;;;;;21.85;39.38;97063.94;6105591;23;20101;-80
2022/05/21 15:46:26;;;;;;;1.25;0.40;;;;;;;21.84;37.85;97062.31;6103649;23;20042;-79
2022/05/21 15:48:55;;;;;;;3.47;0.47;;;;;;;21.84;38.13;97068.44;6104180;23;20023;-78
2022/05/21 15:51:30;;;;;;;1.88;0.30;;;;;;;21.81;38.20;97061.75;6103438;23;20466;-80
2022/05/21 15:53:58;;;;;;;1.88;0.30;;;;;;;21.79;37.38;97055.88;6103030;23;20344;-77
2022/05/21 15:56:26;;;;;;;1.02;0.65;;;;;;;21.78;37.52;97048.97;6103013;23;20053;-78
2022/05/21 15:58:54;;;;;;;1.77;0.40;;;;;;;21.80;37.92;97046.09;6101938;23;20024;-80
2022/05/21 16:01:23;;;;;;;1.42;0.47;;;;;;;21.79;37.86;97050.56;6102424;23;20093;-79
2022/05/21 16:03:53;;;;;;;1.52;0.57;;;;;;;21.79;37.87;97042.59;6103395;23;20390;-78
2022/05/21 16:06:22;;;;;;;1.88;0.50;;;;;;;21.83;37.30;97050.13;6101384;23;20093;-78
2022/05/21 16:08:52;;;;;;;0.52;0.28;;;;;;;21.83;38.68;97050.13;6103204;23;20033;-86
2022/05/21 16:11:22;;;;;;;0.60;0.38;;;;;;;21.85;39.44;97034.75;6102015;23;20086;-77
2022/05/21 16:13:51;;;;;;;0.82;0.50;;;;;;;21.89;38.42;97034.00;6100643;23;20022;-81
2022/05/21 16:16:19;;;;;;;2.13;0.38;;;;;;;21.93;38.72;97039.63;6104302;23;20074;-78
2022/05/21 16:18:48;;;;;;;1.63;0.30;;;;;;;21.92;36.82;97046.00;6105399;23;20073;-78
2022/05/21 16:21:18;;;;;;;3.15;0.80;;;;;;;21.90;36.19;97040.13;6102908;23;20042;-78
2022/05/21 16:23:47;;;;;;;1.40;0.40;;;;;;;21.90;37.57;97032.94;6104730;23;20026;-77
2022/05/21 16:27:10;;;;;;;0.63;0.40;;;;;;;21.91;36.59;97028.44;6102727;23;20093;-78
2022/05/21 16:29:04;;;;;;;1.33;0.30;;;;;;;21.90;38.62;97024.19;6110366;23;20057;-80
2022/05/21 16:31:33;;;;;;;1.17;0.47;;;;;;;21.91;39.52;97031.09;6110655;23;20088;-84
2022/05/21 16:34:00;;;;;;;0.98;0.30;;;;;;;21.90;39.80;97030.28;6109961;23;20022;-80
2022/05/21 16:36:28;;;;;;;1.17;0.50;;;;;;;21.89;39.52;97023.38;6107847;23;20034;-82
2022/05/21 16:38:56;;;;;;;1.60;1.23;;;;;;;21.88;38.46;97018.31;6110119;23;20105;-83
2022/05/21 16:41:25;;;;;;;3.28;0.65;;;;;;;21.86;38.09;97023.06;6109820;23;20074;-80
2022/05/21 16:43:52;;;;;;;3.28;1.02;;;;;;;21.83;37.66;97010.28;6110448;23;20078;-79
2022/05/21 16:46:20;;;;;;;2.33;1.00;;;;;;;21.82;37.16;97012.09;6109240;23;20086;-79
2022/05/21 16:48:48;;;;;;;2.67;0.75;;;;;;;21.83;36.90;97011.06;6109696;23;20403;-79
2022/05/21 16:51:15;;;;;;;2.38;0.68;;;;;;;21.84;37.10;97009.22;6109751;23;20040;-81
2022/05/21 16:53:43;;;;;;;2.92;0.73;;;;;;;21.85;39.06;97010.84;6109680;23;20083;-79
2022/05/21 16:56:11;;;;;;;0.50;0.50;;;;;;;21.85;38.77;97008.97;6109918;23;20022;-79
2022/05/21 16:58:40;;;;;;;2.55;0.60;;;;;;;21.87;39.05;97014.06;6114155;23;20033;-82
2022/05/21 17:01:08;;;;;;;2.03;0.40;;;;;;;21.87;38.44;97006.88;6114939;23;20070;-82
2022/05/21 17:03:36;;;;;;;2.67;0.65;;;;;;;21.87;38.35;97016.72;6115326;23;20030;-80
2022/05/21 17:06:03;;;;;;;2.75;0.70;;;;;;;21.87;39.35;97011.41;6112545;23;20042;-79
2022/05/21 17:08:31;;;;;;;1.25;0.60;;;;;;;21.88;38.89;97010.34;6113375;23;20061;-80
2022/05/21 17:10:58;;;;;;;1.15;0.40;;;;;;;21.87;37.63;97008.75;6112329;23;20078;-82
2022/05/21 17:13:26;;;;;;;0.70;0.47;;;;;;;21.87;37.36;97006.09;6111626;23;20118;-79
2022/05/21 17:15:56;;;;;;;2.92;0.90;;;;;;;21.86;39.67;97001.81;6113321;23;20054;-78
2022/05/21 17:18:23;;;;;;;0.98;0.50;;;;;;;21.85;38.34;97002.88;6112364;23;20023;-79
2022/05/21 17:20:51;;;;;;;2.25;0.60;;;;;;;21.81;37.85;96998.03;6111453;23;20113;-79
2022/05/21 17:23:19;;;;;;;0.88;0.30;;;;;;;21.79;37.28;96992.16;6111792;23;20038;-78
2022/05/21 17:25:46;;;;;;;0.63;0.40;;;;;;;21.76;37.25;96984.69;6111424;23;20471;-79
2022/05/21 17:31:00;;;;;;;1.20;0.50;;;;;;;21.70;37.86;96998.13;6109902;23;20095;-78
2022/05/21 17:33:28;;;;;;;1.60;0.43;;;;;;;21.70;38.45;96990.16;6109161;23;20046;-78
2022/05/21 17:35:59;;;;;;;1.45;0.47;;;;;;;21.67;38.21;96983.50;6110965;23;20053;-79
2022/05/21 17:38:28;;;;;;;1.63;0.35;;;;;;;21.66;38.53;96976.56;6111958;23;20421;-78
2022/05/21 17:40:59;;;;;;;1.02;0.50;;;;;;;21.67;39.83;96972.88;6111975;23;20463;-78
2022/05/21 17:43:27;;;;;;;2.63;0.90;;;;;;;21.67;39.24;96972.88;6111432;23;20023;-78
2022/05/21 17:45:55;;;;;;;1.98;0.57;;;;;;;21.66;40.01;96973.91;6110167;23;20074;-78
2022/05/21 17:48:24;;;;;;;1.17;0.40;;;;;;;21.65;39.30;96974.97;6112364;23;20078;-79
2022/05/21 17:50:51;;;;;;;2.20;0.60;;;;;;;21.65;40.54;96979.50;6114394;23;20412;-78
2022/05/21 17:53:20;;;;;;;3.55;0.90;;;;;;;21.64;41.17;96976.00;6111256;23;20079;-77
2022/05/21 17:55:48;;;;;;;0.75;0.70;;;;;;;21.64;40.45;96980.53;6110744;23;20084;-78
2022/05/21 17:58:17;;;;;;;3.65;0.82;;;;;;;21.62;40.45;96970.13;6111484;23;20422;-78
2022/05/21 18:00:48;;;;;;;1.40;0.80;;;;;;;21.58;40.00;96969.84;6111560;23;20046;-80
2022/05/21 18:03:16;;;;;;;1.35;0.80;;;;;;;21.58;41.01;96976.97;6110198;23;20090;-78
2022/05/21 18:05:48;;;;;;;2.10;0.70;;;;;;;21.54;40.91;96974.03;6112232;23;20046;-79
2022/05/21 18:08:16;;;;;;;1.05;0.60;;;;;;;21.53;41.59;96979.56;6111321;23;20093;-79
2022/05/21 18:10:48;;;;;;;1.30;0.57;;;;;;;21.50;40.63;96980.06;6109320;23;20077;-77
2022/05/21 18:13:16;;;;;;;0.75;0.63;;;;;;;21.46;40.83;96985.03;6108168;23;20506;-78
2022/05/21 18:21:18;;;;;;;3.03;0.93;;;;;;;21.30;41.33;96981.31;6107129;23;20032;-77
2022/05/21 18:23:47;;;;;;;2.20;0.80;;;;;;;21.24;41.90;96984.13;6120318;23;20030;-78
2022/05/21 18:26:17;;;;;;;2.03;0.90;;;;;;;21.19;41.94;96984.84;6120897;23;20030;-79
2022/05/21 18:28:45;;;;;;;1.67;0.93;;;;;;;21.13;41.81;96978.63;6119021;23;20380;-86
2022/05/21 18:31:14;;;;;;;2.67;1.00;;;;;;;21.06;42.08;96978.00;6112926;23;20027;-83
2022/05/21 18:33:43;;;;;;;1.48;1.05;;;;;;;21.02;42.36;96976.84;6116436;23;20023;-84
2022/05/21 18:36:12;;;;;;;2.42;1.40;;;;;;;20.96;42.35;96977.81;6113676;23;20479;-82
2022/05/21 18:38:41;;;;;;;2.13;1.05;;;;;;;20.92;42.56;96966.06;6115221;23;20057;-83
2022/05/21 18:41:14;;;;;;;3.67;1.38;;;;;;;20.87;42.70;96966.00;6113762;23;20022;-81
2022/05/21 18:43:43;;;;;;;2.13;1.10;;;;;;;20.84;42.69;96969.09;6113850;23;20052;-82
2022/05/21 18:46:14;;;;;;;1.90;1.10;;;;;;;20.79;43.00;96967.16;6112727;23;20494;-81
2022/05/21 18:48:42;;;;;;;2.25;1.23;;;;;;;20.73;43.37;96962.84;6115010;23;20046;-78
2022/05/21 18:51:10;;;;;;;3.15;1.48;;;;;;;20.68;43.14;96965.38;6115985;23;20022;-79
2022/05/21 18:53:39;;;;;;;2.22;1.20;;;;;;;20.65;43.38;96966.66;6113366;23;20026;-84
2022/05/21 18:56:11;;;;;;;4.50;1.13;;;;;;;20.64;43.74;96969.53;6110354;23;20065;-91
2022/05/21 18:58:40;;;;;;;;;;;;;;;20.62;44.05;96961.84;6112144;23;20045;-82
2022/05/21 19:01:09;;;;;;;5.60;1.17;;;;;;;20.60;45.78;96960.44;6111619;23;19968;-88